Date,TemperatureHighF,TemperatureAvgF,TemperatureLowF,DewpointHighF,DewpointAvgF,DewpointLowF,HumidityHigh,HumidityAvg,HumidityLow,PressureMaxIn,PressureMinIn,WindSpeedMaxMPH,WindSpeedAvgMPH,GustSpeedMaxMPH,PrecipitationSumIn
2013-1-1,36.9,32.0,30.4,21.8,20.3,18.6,69,62,52,30.40,30.30,21,8,21,0.01
2013-1-2,36.7,32.7,31.3,21.2,20.1,18.9,63,59,53,30.30,30.17,25,12,25,0.00
2013-1-3,36.7,32.9,30.7,29.6,20.6,-17.8,85,61,48,30.23,30.11,24,9,24,0.01
2013-1-4,41.5,35.7,32.7,35.1,29.0,21.7,87,77,59,30.31,30.13,19,4,19,0.04
2013-1-5,36.0,34.3,32.9,28.1,25.0,22.1,77,68,63,30.19,30.11,19,6,19,0.04
2013-1-6,42.8,38.1,33.6,39.4,34.5,28.1,91,87,77,30.20,30.02,5,0,5,0.27
2013-1-7,50.9,46.6,40.5,47.0,43.4,38.3,93,88,85,30.17,29.93,14,2,14,0.13
2013-1-8,54.3,50.0,44.2,47.5,44.4,41.2,92,82,73,30.17,29.86,14,2,14,0.20
2013-1-9,51.4,42.4,34.5,44.0,37.4,30.5,90,82,65,29.94,29.67,11,2,11,0.37
2013-1-10,38.5,35.6,32.9,35.2,31.7,28.9,88,86,83,30.06,29.93,6,0,6,0.17
2013-1-11,38.3,31.8,26.6,34.0,27.2,21.9,89,83,69,30.26,30.05,4,0,4,0.04
2013-1-12,36.3,28.2,24.3,30.9,23.4,20.2,88,82,69,30.36,30.25,4,0,4,0.00
2013-1-13,34.9,27.6,24.8,25.6,21.7,19.8,84,78,66,30.45,30.35,0,0,0,0.00
2013-1-14,32.7,30.1,27.3,28.7,25.1,21.3,88,81,75,30.52,30.44,0,0,0,0.01
2013-1-15,38.1,34.2,32.0,34.6,30.5,28.6,88,86,83,30.61,30.52,4,0,4,0.02
2013-1-16,36.7,34.2,31.6,31.7,30.1,27.7,87,85,82,30.60,30.44,6,0,6,0.00
2013-1-17,39.4,33.5,29.1,27.8,25.4,23.4,86,72,60,30.44,30.27,12,4,12,0.00
2013-1-18,41.9,30.9,24.6,31.5,24.5,19.7,85,77,64,30.27,30.21,5,0,5,0.00
2013-1-19,42.8,33.8,24.1,29.9,25.3,19.7,87,71,56,30.29,30.22,11,2,11,0.00
2013-1-20,41.0,34.1,29.1,25.5,22.7,20.5,75,63,53,30.30,30.19,13,5,13,0.01
2013-1-21,41.0,33.2,28.9,24.1,21.0,19.6,68,61,49,30.23,30.11,11,4,11,0.00
2013-1-22,40.5,33.6,30.0,22.5,19.8,18.4,65,57,47,30.12,29.90,17,6,17,0.00
2013-1-23,35.6,33.2,32.0,30.0,23.7,18.4,86,69,51,30.17,29.86,14,3,14,0.28
2013-1-24,46.4,38.4,31.8,40.1,34.5,28.6,91,86,72,30.19,30.06,7,0,7,0.35
2013-1-25,49.3,43.0,37.6,46.6,40.7,35.6,93,92,89,30.10,29.91,2,0,2,0.27
2013-1-26,45.5,40.7,36.3,40.0,37.3,33.4,94,88,78,30.04,29.90,6,1,6,0.13
2013-1-27,43.5,39.6,38.1,37.9,36.3,35.2,91,88,79,30.11,30.00,8,2,8,0.35
2013-1-28,42.3,40.7,38.7,39.5,38.0,36.2,91,90,89,30.16,30.03,13,2,13,0.98
2013-1-29,45.7,43.8,41.5,42.7,41.0,39.1,92,90,87,30.42,30.15,11,2,11,0.67
2013-1-30,47.5,45.1,42.4,44.0,42.0,39.4,91,89,86,30.41,30.36,10,2,10,0.48
2013-1-31,53.2,47.1,43.2,46.3,42.9,40.3,92,86,67,30.41,30.29,5,0,5,0.02